Time;durP1;ratioP1;P1;durP2;ratioP2;P2;SDS_P1;SDS_P2;PMS_P1;PMS_P2;Temp;Humidity;BMP_temperature;BMP_pressure;BME280_temperature;BME280_humidity;BME280_pressure;Samples;Min_cycle;Max_cycle;Signal;HPM_P1;HPM_P2
2023/08/09 00:00:53;;;;;;;3.45;2.15;;;21.00;89.90;;;;;;7377737;19;20007;-75
2023/08/09 00:03:22;;;;;;;9.68;2.10;;;21.00;89.90;;;;;;7383806;19;20071;-76
2023/08/09 00:05:51;;;;;;;6.53;2.05;;;20.90;90.00;;;;;;7386367;19;20233;-75
2023/08/09 00:08:19;;;;;;;7.00;2.25;;;20.90;90.00;;;;;;7407705;19;20006;-74
2023/08/09 00:10:48;;;;;;;6.88;2.22;;;20.90;90.20;;;;;;7386179;19;20010;-75
2023/08/09 00:13:19;;;;;;;5.32;2.33;;;20.90;90.50;;;;;;7385317;19;20007;-75
2023/08/09 00:15:48;;;;;;;6.55;2.65;;;20.80;90.20;;;;;;7384914;19;20007;-75
2023/08/09 00:18:17;;;;;;;5.00;2.05;;;20.90;90.20;;;;;;7385027;19;20322;-74
2023/08/09 00:20:46;;;;;;;6.05;2.40;;;20.90;90.20;;;;;;7384353;19;20027;-74
2023/08/09 00:23:16;;;;;;;4.10;2.28;;;20.90;90.20;;;;;;7405607;19;20380;-74
2023/08/09 00:25:44;;;;;;;6.32;2.45;;;20.90;90.20;;;;;;7383523;19;19998;-75
2023/08/09 00:28:13;;;;;;;8.02;1.98;;;20.90;90.20;;;;;;7384035;19;20027;-74
2023/08/09 00:30:44;;;;;;;4.78;2.10;;;20.80;90.20;;;;;;7383232;19;20102;-74
2023/08/09 00:33:13;;;;;;;;;;;20.80;90.30;;;;;;7384128;19;20023;-75
2023/08/09 00:35:42;;;;;;;10.30;2.53;;;20.80;90.30;;;;;;7381016;19;20270;-75
2023/08/09 00:38:10;;;;;;;9.32;2.17;;;20.80;90.20;;;;;;7405541;19;20062;-74
2023/08/09 00:40:39;;;;;;;5.90;2.40;;;20.80;90.20;;;;;;7383142;19;20022;-74
2023/08/09 00:43:08;;;;;;;8.13;2.30;;;20.80;90.20;;;;;;7384085;19;20076;-74
2023/08/09 00:45:37;;;;;;;5.30;2.10;;;20.70;90.20;;;;;;7383581;19;20085;-75
2023/08/09 00:48:08;;;;;;;4.05;2.40;;;20.70;90.30;;;;;;7383783;19;20429;-75
2023/08/09 00:50:38;;;;;;;6.85;2.50;;;20.70;90.20;;;;;;7383397;19;20013;-73
2023/08/09 00:53:07;;;;;;;5.35;2.45;;;20.70;90.20;;;;;;7405369;19;20036;-75
2023/08/09 00:55:36;;;;;;;5.57;2.20;;;20.70;90.60;;;;;;7382783;19;20381;-74
2023/08/09 00:58:05;;;;;;;4.88;2.35;;;20.70;90.40;;;;;;7384224;19;20094;-74
2023/08/09 01:00:33;;;;;;;5.20;2.63;;;20.60;90.50;;;;;;7384162;19;20010;-74
2023/08/09 01:03:03;;;;;;;8.02;2.35;;;20.50;90.60;;;;;;7384410;19;20065;-74
2023/08/09 01:05:42;;;;;;;6.47;2.40;;;20.50;90.70;;;;;;7404405;19;20245;-75
2023/08/09 01:08:17;;;;;;;6.43;2.42;;;20.50;90.70;;;;;;7404768;19;20353;-74
2023/08/09 01:10:51;;;;;;;3.38;1.88;;;20.50;90.70;;;;;;7382150;19;20006;-74
2023/08/09 01:13:21;;;;;;;5.68;2.33;;;20.50;90.70;;;;;;7381668;19;20014;-73
2023/08/09 01:15:52;;;;;;;9.73;2.30;;;20.50;90.60;;;;;;7381828;19;19999;-74
2023/08/09 01:18:23;;;;;;;6.40;2.67;;;20.60;90.60;;;;;;7382805;19;20087;-73
2023/08/09 01:20:55;;;;;;;11.07;2.25;;;20.60;90.60;;;;;;7383323;19;20141;-74
2023/08/09 01:23:24;;;;;;;9.27;2.60;;;20.60;90.60;;;;;;7407354;19;20375;-74
2023/08/09 01:25:55;;;;;;;9.15;2.60;;;20.60;90.60;;;;;;7381629;19;20014;-75
2023/08/09 01:28:24;;;;;;;7.97;2.97;;;20.60;90.60;;;;;;7382131;19;20074;-74
2023/08/09 01:30:53;;;;;;;6.93;2.60;;;20.70;90.60;;;;;;7381604;19;20003;-74
2023/08/09 01:33:22;;;;;;;6.55;2.42;;;20.70;90.60;;;;;;7381274;19;20003;-74
2023/08/09 01:35:56;;;;;;;7.07;2.33;;;20.60;90.60;;;;;;7379808;19;20020;-74
2023/08/09 01:38:28;;;;;;;4.82;2.67;;;20.60;90.80;;;;;;7403840;19;20007;-74
2023/08/09 01:41:00;;;;;;;9.55;2.38;;;20.60;90.80;;;;;;7381833;19;20010;-74
2023/08/09 01:43:30;;;;;;;4.95;2.40;;;20.50;90.90;;;;;;7381455;19;20027;-74
2023/08/09 01:45:59;;;;;;;7.30;2.70;;;20.50;91.40;;;;;;7381276;19;20015;-74
2023/08/09 01:48:27;;;;;;;9.60;2.47;;;20.50;91.10;;;;;;7380351;19;20018;-74
2023/08/09 01:50:58;;;;;;;9.70;2.40;;;20.50;91.20;;;;;;7381263;19;20035;-74
2023/08/09 01:53:27;;;;;;;5.30;2.13;;;20.50;91.20;;;;;;7403687;19;20010;-74
2023/08/09 01:55:59;;;;;;;7.53;2.70;;;20.60;91.30;;;;;;7378960;19;20027;-74
2023/08/09 01:58:27;;;;;;;;;;;20.60;91.30;;;;;;7381919;19;20304;-74
2023/08/09 02:00:56;;;;;;;5.15;2.40;;;20.70;91.20;;;;;;7381392;19;19915;-73
2023/08/09 02:03:25;;;;;;;6.18;2.55;;;20.60;91.00;;;;;;7383861;19;20004;-74
2023/08/09 02:05:54;;;;;;;9.15;2.60;;;20.60;91.10;;;;;;7381426;19;20031;-74
2023/08/09 02:08:22;;;;;;;11.05;2.85;;;20.60;91.10;;;;;;7402576;19;20079;-74
2023/08/09 02:10:51;;;;;;;8.15;2.78;;;20.60;91.20;;;;;;7382302;19;20465;-75
2023/08/09 02:13:22;;;;;;;9.30;2.80;;;20.50;91.30;;;;;;7386669;19;20003;-74
2023/08/09 02:15:51;;;;;;;12.02;2.85;;;20.50;91.40;;;;;;7386308;19;20007;-75
2023/08/09 02:18:20;;;;;;;7.15;2.47;;;20.60;91.50;;;;;;7385697;19;20014;-75
2023/08/09 02:20:49;;;;;;;4.13;2.38;;;20.60;91.50;;;;;;7386463;19;20361;-74
2023/08/09 02:23:18;;;;;;;7.30;2.28;;;20.60;91.60;;;;;;7405637;19;20007;-74
2023/08/09 02:25:46;;;;;;;4.47;2.33;;;20.60;91.60;;;;;;7378612;19;20006;-74
2023/08/09 02:28:15;;;;;;;3.97;2.03;;;20.70;91.60;;;;;;7380751;19;20003;-74
2023/08/09 02:30:46;;;;;;;9.27;2.30;;;20.80;91.60;;;;;;7380550;19;20027;-74
2023/08/09 02:33:15;;;;;;;;;;;20.80;91.60;;;;;;7380523;19;20028;-75
2023/08/09 02:35:55;;;;;;;11.18;2.50;;;20.90;91.60;;;;;;7379290;19;19965;-75
2023/08/09 02:38:24;;;;;;;8.85;2.05;;;20.90;91.50;;;;;;7401924;19;20062;-74
2023/08/09 02:40:53;;;;;;;4.82;2.38;;;21.00;91.60;;;;;;7379630;19;20382;-75
2023/08/09 02:43:23;;;;;;;4.28;2.17;;;21.00;91.70;;;;;;7379172;19;20277;-74
2023/08/09 02:45:56;;;;;;;12.77;2.30;;;21.00;91.70;;;;;;7380879;19;19999;-76
2023/08/09 02:48:25;;;;;;;4.38;2.22;;;21.00;91.70;;;;;;7380761;19;20409;-75
2023/08/09 02:50:54;;;;;;;5.57;2.35;;;21.00;91.80;;;;;;7381863;19;20019;-75
2023/08/09 02:53:29;;;;;;;8.10;2.50;;;21.00;91.80;;;;;;7399625;19;20007;-74
2023/08/09 02:55:57;;;;;;;12.50;2.10;;;20.90;91.90;;;;;;7377787;19;20277;-75
2023/08/09 02:58:26;;;;;;;7.25;2.20;;;20.80;92.10;;;;;;7378967;19;20023;-74
2023/08/09 03:00:57;;;;;;;4.95;1.83;;;20.80;92.10;;;;;;7379425;19;20058;-74
2023/08/09 03:03:26;;;;;;;;;;;20.80;92.20;;;;;;7378321;19;20050;-74
2023/08/09 03:05:56;;;;;;;4.50;1.92;;;20.80;92.20;;;;;;7379719;19;19974;-75
2023/08/09 03:08:25;;;;;;;6.05;2.47;;;20.80;92.20;;;;;;7400960;19;20488;-74
2023/08/09 03:10:53;;;;;;;5.22;2.60;;;20.70;92.20;;;;;;7378545;19;20019;-74
2023/08/09 03:13:22;;;;;;;6.00;2.22;;;20.80;92.30;;;;;;7378628;19;20006;-74
2023/08/09 03:15:51;;;;;;;5.13;2.40;;;20.80;92.30;;;;;;7378716;19;20020;-75
2023/08/09 03:18:22;;;;;;;3.67;2.10;;;20.80;92.30;;;;;;7376714;19;20006;-74
2023/08/09 03:20:51;;;;;;;;;;;20.80;92.30;;;;;;7379738;19;20024;-74
2023/08/09 03:23:19;;;;;;;3.40;1.85;;;20.80;92.60;;;;;;7400275;19;20172;-75
2023/08/09 03:25:48;;;;;;;7.55;2.13;;;20.70;92.60;;;;;;7378428;19;20003;-74
2023/08/09 03:28:17;;;;;;;3.20;2.20;;;20.70;92.30;;;;;;7378633;19;20011;-75
2023/08/09 03:30:48;;;;;;;7.80;2.78;;;20.70;92.30;;;;;;7378343;19;20231;-74
2023/08/09 03:33:17;;;;;;;5.82;2.28;;;20.70;92.40;;;;;;7377599;19;20007;-75
2023/08/09 03:35:50;;;;;;;6.50;2.50;;;20.70;92.30;;;;;;7377507;19;20252;-75
2023/08/09 03:38:19;;;;;;;5.35;2.17;;;20.70;92.30;;;;;;7408206;19;20040;-74
2023/08/09 03:40:48;;;;;;;6.55;2.20;;;20.70;92.30;;;;;;7385412;19;20003;-74
2023/08/09 03:43:16;;;;;;;5.70;2.47;;;20.70;92.40;;;;;;7385565;19;20010;-74
2023/08/09 03:45:45;;;;;;;2.63;2.13;;;20.80;92.40;;;;;;7385722;19;20010;-74
2023/08/09 03:48:14;;;;;;;8.52;2.00;;;20.80;92.40;;;;;;7384046;19;20072;-75
2023/08/09 03:50:42;;;;;;;5.18;2.28;;;20.80;92.40;;;;;;7385644;19;20003;-75
2023/08/09 03:53:14;;;;;;;4.85;2.38;;;20.80;92.30;;;;;;7406774;19;20083;-75
2023/08/09 03:55:42;;;;;;;;;;;20.80;92.30;;;;;;7383998;19;20079;-75
2023/08/09 03:58:11;;;;;;;7.53;2.47;;;20.90;92.20;;;;;;7385195;19;19911;-74
2023/08/09 04:00:40;;;;;;;11.07;2.60;;;20.90;92.20;;;;;;7385621;19;20425;-74
2023/08/09 04:03:09;;;;;;;3.97;2.47;;;20.90;92.20;;;;;;7385734;19;20020;-74
2023/08/09 04:05:37;;;;;;;7.55;2.10;;;20.90;92.20;;;;;;7385394;19;20019;-74
2023/08/09 04:08:07;;;;;;;7.07;1.95;;;20.90;92.30;;;;;;7403713;19;20039;-74
2023/08/09 04:10:38;;;;;;;6.65;2.30;;;20.90;92.30;;;;;;7384475;19;19999;-75
2023/08/09 04:13:07;;;;;;;;;;;20.90;92.30;;;;;;7385627;19;20011;-74
2023/08/09 04:15:35;;;;;;;5.78;2.20;;;21.00;92.40;;;;;;7385043;19;19914;-74
2023/08/09 04:18:05;;;;;;;3.05;1.95;;;20.90;92.30;;;;;;7385104;19;20373;-74
2023/08/09 04:20:33;;;;;;;5.47;2.22;;;20.90;92.30;;;;;;7388761;19;20024;-75
2023/08/09 04:23:03;;;;;;;10.13;2.65;;;21.00;92.40;;;;;;7412660;19;20022;-74
2023/08/09 04:25:32;;;;;;;7.68;2.30;;;21.00;92.50;;;;;;7391182;19;20030;-74
2023/08/09 04:28:03;;;;;;;14.02;2.60;;;21.00;92.50;;;;;;7392391;19;20017;-75
2023/08/09 04:30:32;;;;;;;5.03;2.35;;;21.00;92.50;;;;;;7392932;19;20002;-76
2023/08/09 04:33:03;;;;;;;5.97;2.53;;;21.00;92.40;;;;;;7386620;19;20081;-75
2023/08/09 04:35:33;;;;;;;4.15;2.47;;;21.00;92.50;;;;;;7399522;19;20031;-75
2023/08/09 04:38:03;;;;;;;9.55;2.80;;;21.00;92.50;;;;;;7404901;19;20023;-73
2023/08/09 04:40:32;;;;;;;10.17;2.63;;;21.10;92.60;;;;;;7383881;19;20044;-73
2023/08/09 04:43:03;;;;;;;7.55;2.17;;;21.00;92.60;;;;;;7384491;19;20020;-74
2023/08/09 04:45:32;;;;;;;;;;;21.00;92.60;;;;;;7384189;19;20014;-75
2023/08/09 04:48:05;;;;;;;4.40;2.42;;;21.10;92.70;;;;;;7382521;19;19962;-74
2023/08/09 04:50:34;;;;;;;4.85;2.38;;;21.10;92.60;;;;;;7384112;19;20007;-76
2023/08/09 04:53:02;;;;;;;5.50;2.53;;;21.10;92.70;;;;;;7409517;19;20027;-78
2023/08/09 04:55:32;;;;;;;6.03;2.45;;;21.00;92.60;;;;;;7382526;19;20019;-77
2023/08/09 04:58:03;;;;;;;5.22;2.10;;;21.00;92.60;;;;;;7383774;19;20007;-76
2023/08/09 05:00:32;;;;;;;6.75;2.38;;;21.10;92.70;;;;;;7384074;19;20010;-76
2023/08/09 05:03:01;;;;;;;8.07;2.30;;;21.00;92.60;;;;;;7381966;19;20059;-77
2023/08/09 05:05:32;;;;;;;10.25;2.40;;;21.00;92.60;;;;;;7404859;19;20002;-76
2023/08/09 05:08:01;;;;;;;;;;;21.00;92.80;;;;;;7383600;19;20013;-76
2023/08/09 05:10:29;;;;;;;8.20;2.55;;;21.00;92.90;;;;;;7382569;19;19914;-76
2023/08/09 05:12:58;;;;;;;4.35;2.58;;;21.00;92.90;;;;;;7383499;19;20251;-75
2023/08/09 05:15:30;;;;;;;4.20;2.20;;;20.90;92.90;;;;;;7381242;19;20015;-77
2023/08/09 05:17:58;;;;;;;5.05;2.40;;;21.00;93.00;;;;;;7383768;19;20394;-76
2023/08/09 05:20:27;;;;;;;7.93;2.55;;;21.00;92.90;;;;;;7405648;19;20014;-76
2023/08/09 05:22:56;;;;;;;7.38;2.42;;;21.00;92.90;;;;;;7382297;19;20015;-77
2023/08/09 05:25:25;;;;;;;7.18;2.60;;;21.00;93.00;;;;;;7382535;19;20048;-76
2023/08/09 05:27:53;;;;;;;5.00;2.35;;;21.00;93.00;;;;;;7382842;19;20011;-76
2023/08/09 05:30:23;;;;;;;5.18;2.47;;;20.90;93.20;;;;;;7383139;19;20011;-77
2023/08/09 05:32:54;;;;;;;9.10;2.67;;;20.90;93.20;;;;;;7381824;19;22456;-77
2023/08/09 05:35:22;;;;;;;;;;;20.90;93.20;;;;;;7404452;19;20023;-77
2023/08/09 05:37:51;;;;;;;6.13;2.40;;;21.00;93.20;;;;;;7381802;19;20218;-76
2023/08/09 05:40:20;;;;;;;5.38;2.17;;;21.00;93.10;;;;;;7381878;19;20003;-76
2023/08/09 05:42:49;;;;;;;7.20;2.05;;;21.10;93.20;;;;;;7382359;19;20015;-76
2023/08/09 05:45:17;;;;;;;7.65;2.50;;;21.10;93.20;;;;;;7380573;19;20012;-77
2023/08/09 05:47:46;;;;;;;7.85;2.20;;;21.00;93.20;;;;;;7381791;19;20014;-76
2023/08/09 05:50:17;;;;;;;4.22;2.05;;;21.00;93.20;;;;;;7403620;19;20014;-76
2023/08/09 05:52:46;;;;;;;3.70;2.20;;;21.00;93.30;;;;;;7381211;19;20369;-76
2023/08/09 05:55:15;;;;;;;3.78;2.17;;;21.00;93.30;;;;;;7382073;19;20009;-76
2023/08/09 05:57:47;;;;;;;9.07;2.40;;;21.10;93.20;;;;;;7381591;19;20257;-76
2023/08/09 06:00:18;;;;;;;6.07;2.08;;;21.00;93.20;;;;;;7381099;19;20015;-76
2023/08/09 06:02:48;;;;;;;3.00;1.92;;;21.00;93.30;;;;;;7382222;19;20025;-76
2023/08/09 06:05:28;;;;;;;6.20;1.80;;;20.80;93.30;;;;;;7402626;19;20031;-76
2023/08/09 06:07:58;;;;;;;3.03;1.67;;;20.90;93.50;;;;;;7381854;19;20031;-76
2023/08/09 06:10:27;;;;;;;4.65;1.67;;;20.80;93.40;;;;;;7381401;19;20032;-77
2023/08/09 06:12:56;;;;;;;3.50;1.45;;;20.90;93.40;;;;;;7381746;19;20030;-77
2023/08/09 06:15:25;;;;;;;8.07;1.70;;;21.00;93.30;;;;;;7381542;19;20007;-77
2023/08/09 06:17:53;;;;;;;2.80;1.70;;;20.90;93.40;;;;;;7381440;19;20794;-77
2023/08/09 06:20:27;;;;;;;4.55;1.38;;;20.90;93.40;;;;;;7402869;19;20021;-76
2023/08/09 06:22:56;;;;;;;6.35;1.60;;;21.00;93.40;;;;;;7380685;19;20095;-76
2023/08/09 06:25:25;;;;;;;5.32;1.77;;;21.00;93.40;;;;;;7380999;19;20006;-76
2023/08/09 06:27:54;;;;;;;7.18;1.70;;;21.10;93.20;;;;;;7379349;19;20070;-77
2023/08/09 06:30:23;;;;;;;2.88;1.50;;;21.20;93.10;;;;;;7381914;19;20334;-77
2023/08/09 06:32:53;;;;;;;5.13;1.95;;;21.20;93.40;;;;;;7383837;19;20020;-77
2023/08/09 06:35:24;;;;;;;4.38;1.63;;;21.20;93.00;;;;;;7403893;19;20006;-77
2023/08/09 06:37:53;;;;;;;3.60;1.60;;;21.20;93.00;;;;;;7383364;19;20014;-77
2023/08/09 06:40:22;;;;;;;4.47;1.70;;;21.20;93.00;;;;;;7383155;19;20010;-76
2023/08/09 06:42:51;;;;;;;3.80;1.85;;;21.20;93.00;;;;;;7381103;19;20014;-77
2023/08/09 06:45:20;;;;;;;2.80;1.73;;;21.30;93.00;;;;;;7381034;19;20401;-77
2023/08/09 06:47:48;;;;;;;8.60;1.92;;;21.40;92.90;;;;;;7380441;19;20006;-76
2023/08/09 06:50:17;;;;;;;5.15;2.08;;;21.40;92.70;;;;;;7402405;19;20007;-77
2023/08/09 06:52:48;;;;;;;2.65;2.00;;;21.30;92.60;;;;;;7380396;19;20027;-77
2023/08/09 06:55:17;;;;;;;;;;;21.30;92.80;;;;;;7380819;19;20006;-76
2023/08/09 06:57:45;;;;;;;6.63;2.00;;;21.20;92.90;;;;;;7379414;19;20235;-77
2023/08/09 07:00:16;;;;;;;4.10;2.25;;;21.20;93.00;;;;;;7380517;19;20003;-76
2023/08/09 07:02:46;;;;;;;7.38;2.25;;;20.90;93.10;;;;;;7379966;19;20026;-76
2023/08/09 07:05:18;;;;;;;7.25;2.55;;;21.00;93.20;;;;;;7401414;19;20007;-77
2023/08/09 07:07:54;;;;;;;8.25;2.30;;;21.00;93.10;;;;;;7379249;19;20059;-77
2023/08/09 07:10:24;;;;;;;3.85;2.03;;;21.00;93.20;;;;;;7379126;19;20584;-77
2023/08/09 07:12:53;;;;;;;2.33;1.73;;;20.80;93.30;;;;;;7379489;19;20030;-77
2023/08/09 07:15:22;;;;;;;6.78;2.00;;;21.00;93.30;;;;;;7379881;19;20070;-77
2023/08/09 07:17:51;;;;;;;2.30;1.90;;;20.80;93.40;;;;;;7378027;19;20071;-77
2023/08/09 07:20:20;;;;;;;4.18;2.17;;;20.90;93.60;;;;;;7401803;19;20034;-77
2023/08/09 07:22:52;;;;;;;5.03;2.28;;;21.10;93.40;;;;;;7378652;19;20073;-77
2023/08/09 07:25:21;;;;;;;4.45;2.17;;;21.20;93.10;;;;;;7379124;19;20011;-78
2023/08/09 07:27:51;;;;;;;3.47;2.00;;;21.20;92.80;;;;;;7379073;19;20012;-76
2023/08/09 07:30:21;;;;;;;8.38;2.50;;;21.40;92.80;;;;;;7379322;19;20010;-76
2023/08/09 07:32:50;;;;;;;5.13;2.58;;;21.30;92.60;;;;;;7378048;19;20015;-76
2023/08/09 07:35:19;;;;;;;3.70;2.28;;;21.40;92.50;;;;;;7398096;19;20268;-75
2023/08/09 07:37:51;;;;;;;5.80;2.30;;;21.40;92.60;;;;;;7376053;19;20025;-75
2023/08/09 07:40:20;;;;;;;4.40;2.13;;;21.30;92.60;;;;;;7377907;19;20066;-75
2023/08/09 07:42:49;;;;;;;3.78;1.90;;;21.40;92.60;;;;;;7378453;19;20002;-76
2023/08/09 07:45:17;;;;;;;2.40;1.92;;;21.50;92.40;;;;;;7379351;19;20027;-75
2023/08/09 07:47:47;;;;;;;2.78;2.00;;;21.50;92.20;;;;;;7380597;19;20287;-76
2023/08/09 07:50:16;;;;;;;4.75;2.08;;;21.50;92.50;;;;;;7399476;19;20365;-75
2023/08/09 07:52:45;;;;;;;2.42;1.90;;;21.60;93.10;;;;;;7377934;19;20012;-75
2023/08/09 07:55:17;;;;;;;4.68;1.70;;;21.60;92.90;;;;;;7378671;19;20066;-76
2023/08/09 07:57:46;;;;;;;4.25;1.65;;;21.50;92.90;;;;;;7377763;19;20003;-75
2023/08/09 08:00:17;;;;;;;2.08;1.35;;;21.50;93.20;;;;;;7377111;19;20257;-76
2023/08/09 08:02:47;;;;;;;2.67;1.52;;;21.50;93.10;;;;;;7379564;19;20032;-76
2023/08/09 08:05:17;;;;;;;3.88;1.30;;;21.30;93.70;;;;;;7398017;19;20398;-76
2023/08/09 08:07:46;;;;;;;3.50;1.50;;;21.10;94.20;;;;;;7377465;19;20015;-76
2023/08/09 08:10:18;;;;;;;2.55;1.70;;;21.00;94.60;;;;;;7377577;19;20003;-77
2023/08/09 08:12:48;;;;;;;3.38;1.60;;;21.00;94.90;;;;;;7377897;19;20273;-77
2023/08/09 08:15:18;;;;;;;3.72;1.55;;;21.00;95.50;;;;;;7378386;19;20003;-77
2023/08/09 08:17:51;;;;;;;3.03;1.77;;;20.80;95.60;;;;;;7376266;19;20011;-77
2023/08/09 08:20:21;;;;;;;5.32;1.77;;;20.90;96.10;;;;;;7402253;19;20006;-76
2023/08/09 08:22:51;;;;;;;2.35;1.67;;;21.00;96.20;;;;;;7378420;19;20026;-77
2023/08/09 08:25:23;;;;;;;2.57;1.50;;;21.20;96.20;;;;;;7384146;19;20002;-77
2023/08/09 08:27:52;;;;;;;4.30;1.30;;;21.30;96.00;;;;;;7384395;19;20239;-77
2023/08/09 08:30:22;;;;;;;3.25;1.30;;;21.40;95.70;;;;;;7384510;19;20012;-77
2023/08/09 08:32:52;;;;;;;1.85;1.20;;;21.50;95.30;;;;;;7382801;19;20034;-76
2023/08/09 08:35:24;;;;;;;2.33;1.38;;;21.60;95.00;;;;;;7406452;19;20020;-75
2023/08/09 08:37:53;;;;;;;1.27;1.17;;;21.70;94.80;;;;;;7381424;19;20066;-76
2023/08/09 08:40:25;;;;;;;1.80;1.33;;;21.70;94.50;;;;;;7383918;19;20011;-76
2023/08/09 08:42:54;;;;;;;3.40;1.10;;;21.80;94.40;;;;;;7383093;19;20003;-75
2023/08/09 08:45:23;;;;;;;1.27;1.00;;;21.80;94.30;;;;;;7384042;19;19999;-77
2023/08/09 08:47:53;;;;;;;1.67;0.93;;;21.90;94.10;;;;;;7384281;19;20023;-78
2023/08/09 08:50:25;;;;;;;1.55;1.00;;;21.90;93.70;;;;;;7405646;19;20035;-76
2023/08/09 08:52:55;;;;;;;2.17;1.23;;;22.00;93.90;;;;;;7383157;19;20075;-76
2023/08/09 08:55:26;;;;;;;4.75;1.00;;;22.00;93.70;;;;;;7383527;19;20224;-76
2023/08/09 08:57:56;;;;;;;1.08;0.90;;;22.20;93.60;;;;;;7383060;19;20063;-76
2023/08/09 09:00:25;;;;;;;0.88;0.73;;;22.30;93.30;;;;;;7383737;19;20107;-77
2023/08/09 09:02:53;;;;;;;2.40;1.20;;;22.40;93.10;;;;;;7384754;19;20086;-76
2023/08/09 09:05:22;;;;;;;4.28;1.00;;;22.50;92.90;;;;;;7406270;19;20026;-77
2023/08/09 09:07:56;;;;;;;1.20;1.10;;;22.40;92.10;;;;;;7383583;19;20003;-76
2023/08/09 09:10:27;;;;;;;5.00;1.15;;;22.40;92.30;;;;;;7383581;19;19999;-76
2023/08/09 09:12:57;;;;;;;1.13;1.02;;;22.50;92.30;;;;;;7383502;19;20011;-76
2023/08/09 09:15:27;;;;;;;2.25;0.80;;;22.40;92.00;;;;;;7382052;19;20011;-77
2023/08/09 09:17:56;;;;;;;1.67;0.77;;;22.20;92.00;;;;;;7381781;19;20020;-76
2023/08/09 09:20:29;;;;;;;1.70;0.90;;;22.30;91.70;;;;;;7404939;19;20014;-76
2023/08/09 09:22:59;;;;;;;3.65;1.27;;;22.20;91.00;;;;;;7382527;19;20009;-77
2023/08/09 09:25:30;;;;;;;0.80;0.80;;;22.20;91.40;;;;;;7380691;19;20007;-76
2023/08/09 09:27:59;;;;;;;;;;;22.30;91.30;;;;;;7383513;19;20007;-76
2023/08/09 09:30:31;;;;;;;1.33;1.00;;;22.40;90.90;;;;;;7382837;19;20007;-76
2023/08/09 09:33:03;;;;;;;2.28;1.02;;;22.40;90.80;;;;;;7381636;19;20019;-76
2023/08/09 09:35:34;;;;;;;1.15;0.95;;;22.50;91.20;;;;;;7403394;19;20021;-76
2023/08/09 09:38:04;;;;;;;;;;;22.60;89.10;;;;;;7381532;19;20010;-77
2023/08/09 09:40:36;;;;;;;1.20;1.00;;;22.60;90.00;;;;;;7382628;19;19911;-76
2023/08/09 09:43:07;;;;;;;2.45;1.30;;;22.60;88.60;;;;;;7382803;19;20020;-76
2023/08/09 09:45:37;;;;;;;1.05;1.02;;;22.70;88.60;;;;;;7382951;19;20026;-77
2023/08/09 09:48:07;;;;;;;1.83;1.20;;;22.80;88.40;;;;;;7383367;19;20070;-76
2023/08/09 09:50:35;;;;;;;3.13;1.10;;;22.80;87.70;;;;;;7381703;19;20114;-77
2023/08/09 09:53:05;;;;;;;1.77;1.30;;;22.90;87.90;;;;;;7403433;19;20010;-77
2023/08/09 09:55:40;;;;;;;2.05;1.38;;;22.80;88.30;;;;;;7381247;19;20270;-77
2023/08/09 09:58:09;;;;;;;1.27;1.13;;;22.90;87.60;;;;;;7381929;19;20071;-76
2023/08/09 10:00:39;;;;;;;2.30;1.50;;;22.90;88.50;;;;;;7381626;19;20019;-77
2023/08/09 10:03:09;;;;;;;1.00;1.00;;;23.00;87.90;;;;;;7381914;19;20046;-77
2023/08/09 10:05:40;;;;;;;2.03;1.10;;;23.00;87.20;;;;;;7379439;19;20006;-76
2023/08/09 10:08:10;;;;;;;1.40;1.10;;;23.00;87.10;;;;;;7402816;19;20007;-77
2023/08/09 10:10:44;;;;;;;2.80;1.35;;;23.10;86.80;;;;;;7381354;19;20254;-77
2023/08/09 10:13:17;;;;;;;4.13;1.52;;;23.00;87.00;;;;;;7381187;19;19998;-76
2023/08/09 10:15:50;;;;;;;3.53;1.25;;;23.00;87.10;;;;;;7380834;19;20251;-77
2023/08/09 10:18:23;;;;;;;1.83;1.10;;;23.00;86.10;;;;;;7380659;19;20024;-77
2023/08/09 10:20:55;;;;;;;1.98;1.30;;;23.00;86.30;;;;;;7380928;19;20006;-77
2023/08/09 10:23:25;;;;;;;1.70;1.20;;;23.00;85.80;;;;;;7402409;19;20046;-76
2023/08/09 10:25:58;;;;;;;3.65;1.20;;;23.10;86.30;;;;;;7380250;19;20023;-77
2023/08/09 10:28:50;;;;;;;1.30;1.20;;;23.20;85.20;;;;;;7380262;19;20070;-76
2023/08/09 10:31:48;;;;;;;1.42;1.17;;;23.30;85.40;;;;;;7380784;19;20015;-75
2023/08/09 10:34:17;;;;;;;6.72;1.20;;;23.40;85.30;;;;;;7380187;19;20010;-76
2023/08/09 10:36:51;;;;;;;1.75;1.25;;;23.50;85.00;;;;;;7379823;19;20252;-76
2023/08/09 10:39:21;;;;;;;1.40;1.30;;;23.60;83.60;;;;;;7380406;19;20006;-75
2023/08/09 10:42:01;;;;;;;2.00;1.15;;;23.60;82.60;;;;;;7380661;19;20031;-76
2023/08/09 10:44:52;;;;;;;2.40;1.52;;;23.50;83.30;;;;;;7402054;19;20010;-77
2023/08/09 10:47:24;;;;;;;1.52;1.23;;;23.50;84.10;;;;;;7378337;19;20003;-76
2023/08/09 10:50:04;;;;;;;2.70;1.42;;;23.50;84.20;;;;;;7381107;19;20006;-78
2023/08/09 10:52:35;;;;;;;5.65;1.50;;;23.50;84.00;;;;;;7381399;19;20011;-76
2023/08/09 10:55:29;;;;;;;2.97;1.45;;;23.50;84.00;;;;;;7381912;19;20006;-78
2023/08/09 10:58:02;;;;;;;1.73;1.35;;;23.50;83.50;;;;;;7380209;19;20007;-76
2023/08/09 11:00:41;;;;;;;1.55;1.27;;;23.50;83.20;;;;;;7378798;19;20221;-77
2023/08/09 11:03:10;;;;;;;3.50;1.60;;;23.50;83.70;;;;;;7380058;19;19998;-76
2023/08/09 11:05:40;;;;;;;2.45;1.40;;;23.50;84.60;;;;;;7379308;19;20109;-77
2023/08/09 11:08:16;;;;;;;2.05;1.60;;;23.50;84.40;;;;;;7401295;19;20006;-77
2023/08/09 11:10:45;;;;;;;2.20;1.58;;;23.50;84.10;;;;;;7378774;19;20009;-76
2023/08/09 11:13:18;;;;;;;1.92;1.13;;;23.50;83.20;;;;;;7378881;19;20514;-76
2023/08/09 11:15:48;;;;;;;1.63;1.48;;;23.50;83.70;;;;;;7379681;19;20007;-77
2023/08/09 11:18:18;;;;;;;2.38;1.40;;;23.40;84.50;;;;;;7378055;19;20062;-77
2023/08/09 11:20:47;;;;;;;2.97;1.60;;;23.40;84.80;;;;;;7377527;19;20006;-76
2023/08/09 11:23:16;;;;;;;2.25;1.38;;;23.40;85.10;;;;;;7398746;19;20003;-76
2023/08/09 11:25:45;;;;;;;1.73;1.30;;;23.50;84.60;;;;;;7378080;19;20260;-76
2023/08/09 11:28:17;;;;;;;3.22;1.52;;;23.40;83.90;;;;;;7378699;19;20011;-76
2023/08/09 11:30:46;;;;;;;1.77;1.45;;;23.40;83.70;;;;;;7379265;19;20011;-77
2023/08/09 11:33:14;;;;;;;3.05;1.50;;;23.40;83.90;;;;;;7377736;19;20076;-76
2023/08/09 11:35:46;;;;;;;2.30;1.55;;;23.50;83.70;;;;;;7376493;19;20035;-77
2023/08/09 11:38:15;;;;;;;;;;;23.50;83.60;;;;;;7400472;19;20002;-76
2023/08/09 11:40:46;;;;;;;1.80;1.30;;;23.60;83.90;;;;;;7378100;19;19903;-77
2023/08/09 11:43:20;;;;;;;4.10;1.38;;;23.70;83.60;;;;;;7378235;19;20035;-77
2023/08/09 11:45:52;;;;;;;1.40;1.30;;;23.90;82.40;;;;;;7377818;19;20007;-77
2023/08/09 11:48:28;;;;;;;2.97;1.80;;;24.00;81.50;;;;;;7378706;19;20011;-77
2023/08/09 11:51:08;;;;;;;5.43;1.92;;;24.10;81.50;;;;;;7382524;19;20009;-77
2023/08/09 11:53:39;;;;;;;2.00;1.73;;;24.20;81.30;;;;;;7377999;19;20022;-77
2023/08/09 11:56:08;;;;;;;3.30;1.90;;;24.20;81.20;;;;;;7399957;19;20014;-76
2023/08/09 11:58:45;;;;;;;3.50;1.77;;;24.30;80.50;;;;;;7381630;19;20003;-76
2023/08/09 12:01:19;;;;;;;4.68;2.45;;;24.30;79.90;;;;;;7385262;19;20006;-76
2023/08/09 12:03:50;;;;;;;3.38;2.03;;;24.30;79.40;;;;;;7385330;19;20228;-76
2023/08/09 12:06:20;;;;;;;4.35;1.90;;;24.30;79.50;;;;;;7385286;19;20238;-76
2023/08/09 12:08:49;;;;;;;2.20;2.00;;;24.30;79.80;;;;;;7384970;19;20027;-76
2023/08/09 12:11:18;;;;;;;2.97;2.05;;;24.40;80.30;;;;;;7403790;19;20023;-76
2023/08/09 12:13:50;;;;;;;5.20;2.20;;;24.40;81.30;;;;;;7384125;19;20078;-75
2023/08/09 12:16:19;;;;;;;;;;;24.50;81.30;;;;;;7385361;19;20048;-77
2023/08/09 12:18:47;;;;;;;3.80;2.15;;;24.50;79.70;;;;;;7383390;19;19911;-76
2023/08/09 12:21:16;;;;;;;4.13;2.20;;;24.60;80.00;;;;;;7385233;19;20006;-77
2023/08/09 12:23:45;;;;;;;2.65;2.25;;;24.60;79.50;;;;;;7384274;19;20393;-77
2023/08/09 12:26:14;;;;;;;5.22;2.00;;;24.70;80.30;;;;;;7405987;19;20260;-77
2023/08/09 12:28:42;;;;;;;2.80;2.05;;;24.70;80.00;;;;;;7384084;19;19998;-77
2023/08/09 12:31:14;;;;;;;3.75;2.05;;;24.80;78.90;;;;;;7384444;19;20002;-77
2023/08/09 12:33:43;;;;;;;;;;;24.80;78.70;;;;;;7383894;19;20020;-76
2023/08/09 12:36:12;;;;;;;3.28;2.20;;;24.80;78.60;;;;;;7384309;19;19946;-77
2023/08/09 12:38:41;;;;;;;3.83;1.90;;;24.80;79.80;;;;;;7382318;19;20243;-76
2023/08/09 12:41:10;;;;;;;4.18;2.08;;;24.80;78.60;;;;;;7405567;19;20007;-77
2023/08/09 12:43:38;;;;;;;3.78;1.90;;;24.90;78.80;;;;;;7382831;19;20127;-77
2023/08/09 12:46:07;;;;;;;3.80;2.10;;;24.90;78.60;;;;;;7384164;19;20014;-76
2023/08/09 12:48:38;;;;;;;4.30;2.20;;;24.90;77.60;;;;;;7383718;19;20497;-76
2023/08/09 12:51:07;;;;;;;3.85;2.20;;;25.00;77.50;;;;;;7383851;19;20007;-76
2023/08/09 12:53:37;;;;;;;4.55;2.00;;;25.00;77.10;;;;;;7384247;19;20014;-76
2023/08/09 12:56:06;;;;;;;2.90;1.95;;;25.10;77.60;;;;;;7404936;19;20009;-76
2023/08/09 12:58:35;;;;;;;4.13;2.28;;;25.20;76.80;;;;;;7381824;19;20020;-77
2023/08/09 13:01:04;;;;;;;2.50;1.95;;;25.30;77.20;;;;;;7385032;19;20026;-77
2023/08/09 13:03:32;;;;;;;3.83;2.00;;;25.30;77.10;;;;;;7385203;19;20002;-76
2023/08/09 13:06:09;;;;;;;3.90;1.92;;;25.30;76.70;;;;;;7384794;19;20307;-77